LKPR/PRG METAR and TAF weather

Enter ICAO airport designator
Station Type Date Time Source
LKPR METAR 2021/09/23 17:30 UTC NOAA

LKPR 231730Z 22013KT CAVOK 17/08 Q1013 NOSIG


Station Type Date Time Source
LKPR Decoded METAR 2021/09/23 17:30 UTC NOAA

Praha / Ruzyne, Czech Republic (LKPR) 50-06N 014-15E 365M
Sep 23, 2021 - 01:30 PM EDT / 2021.09.23 1730 UTC
Wind: from the SW (220 degrees) at 15 MPH (13 KT):0
Visibility: greater than 7 mile(s):0
Temperature: 62 F (17 C)
Dew Point: 46 F (8 C)
Relative Humidity: 55%
Pressure (altimeter): 29.91 in. Hg (1013 hPa)
ob: LKPR 231730Z 22013KT CAVOK 17/08 Q1013 NOSIG
cycle: 17

Station Type Date Time Source
LKPR TAF 2021/09/23 18:30 UTC NOAA

TAF LKPR 231700Z 2318/2500 24014KT CAVOK
TEMPO 2318/2403 26016G26KT
BECMG 2400/2402 9999 BKN025
TEMPO 2403/2406 7000 -RA BKN012
BECMG 2421/2500 CAVOK

Example: see airport list